Time;durP1;ratioP1;P1;durP2;ratioP2;P2;SDS_P1;SDS_P2;PMS_P1;PMS_P2;Temp;Humidity;BMP_temperature;BMP_pressure;BME280_temperature;BME280_humidity;BME280_pressure;Samples;Min_cycle;Max_cycle;Signal;HPM_P1;HPM_P2
2023/08/23 00:00:46;;;;;;;0.65;0.65;;;15.50;99.90;;;;;;4954787;28;20133;-75
2023/08/23 00:03:12;;;;;;;0.82;0.73;;;15.40;99.90;;;;;;4970169;28;20070;-75
2023/08/23 00:05:38;;;;;;;0.95;0.73;;;15.30;99.90;;;;;;4968806;28;20055;-75
2023/08/23 00:08:03;;;;;;;1.20;0.77;;;15.30;99.90;;;;;;4969926;28;20417;-75
2023/08/23 00:10:29;;;;;;;0.70;0.70;;;15.30;99.90;;;;;;4969374;28;20093;-75
2023/08/23 00:12:56;;;;;;;0.70;0.63;;;15.40;99.90;;;;;;4982296;28;20069;-75
2023/08/23 00:15:22;;;;;;;0.95;0.82;;;15.40;99.90;;;;;;4998008;28;20577;-75
2023/08/23 00:17:47;;;;;;;0.90;0.77;;;15.30;99.90;;;;;;4959883;28;20069;-75
2023/08/23 00:20:13;;;;;;;0.70;0.70;;;15.30;99.90;;;;;;4952884;28;20047;-75
2023/08/23 00:22:39;;;;;;;0.82;0.80;;;15.30;99.90;;;;;;4953464;28;20054;-75
2023/08/23 00:25:05;;;;;;;0.80;0.80;;;15.20;99.90;;;;;;4968823;28;20047;-75
2023/08/23 00:27:30;;;;;;;0.75;0.63;;;15.20;99.90;;;;;;4961131;28;20049;-76
2023/08/23 00:29:56;;;;;;;0.82;0.70;;;15.20;99.90;;;;;;4963800;28;20079;-75
2023/08/23 00:32:21;;;;;;;0.80;0.70;;;15.20;99.90;;;;;;4940466;28;20051;-75
2023/08/23 00:34:47;;;;;;;1.27;0.82;;;15.20;99.90;;;;;;4955418;28;20039;-75
2023/08/23 00:37:13;;;;;;;0.70;0.70;;;15.20;99.90;;;;;;4951276;28;20118;-75
2023/08/23 00:39:38;;;;;;;1.20;0.90;;;15.20;99.90;;;;;;4959479;28;20055;-75
2023/08/23 00:42:04;;;;;;;1.02;0.80;;;15.20;99.90;;;;;;4973377;28;20057;-75
2023/08/23 00:44:30;;;;;;;1.55;0.80;;;15.20;99.90;;;;;;4964195;28;20490;-75
2023/08/23 00:46:55;;;;;;;0.70;0.70;;;15.20;99.90;;;;;;4970153;28;20070;-75
2023/08/23 00:49:21;;;;;;;0.77;0.70;;;15.30;99.90;;;;;;4973158;28;20058;-75
2023/08/23 00:51:48;;;;;;;0.70;0.70;;;15.30;99.90;;;;;;4972821;28;20050;-75
2023/08/23 00:54:14;;;;;;;1.10;0.93;;;15.30;99.90;;;;;;4972872;28;20050;-75
2023/08/23 00:56:40;;;;;;;0.80;0.80;;;15.30;99.90;;;;;;4959358;28;20525;-75
2023/08/23 00:59:08;;;;;;;1.80;0.70;;;15.30;99.90;;;;;;4972729;28;20101;-75
2023/08/23 01:01:33;;;;;;;1.45;1.00;;;15.30;99.90;;;;;;4968331;28;20039;-75
2023/08/23 01:03:59;;;;;;;1.02;0.90;;;15.30;99.90;;;;;;4963770;28;20440;-75
2023/08/23 01:06:35;;;;;;;1.20;1.05;;;15.20;99.90;;;;;;4943498;28;20043;-75
2023/08/23 01:09:06;;;;;;;1.20;0.97;;;15.10;99.90;;;;;;4972314;28;20096;-75
2023/08/23 01:12:00;;;;;;;1.02;0.93;;;15.00;99.90;;;;;;4972505;28;20298;-75
2023/08/23 01:14:45;;;;;;;1.00;0.90;;;14.90;99.90;;;;;;4960883;28;20039;-75
2023/08/23 01:17:13;;;;;;;0.77;0.70;;;14.90;99.90;;;;;;4953331;28;20106;-75
2023/08/23 01:19:44;;;;;;;0.80;0.80;;;14.80;99.90;;;;;;4984813;28;20050;-75
2023/08/23 01:22:13;;;;;;;1.02;0.70;;;14.80;99.90;;;;;;4940163;28;20053;-75
2023/08/23 01:24:40;;;;;;;1.08;0.70;;;14.80;99.90;;;;;;4968706;28;20042;-75
2023/08/23 01:27:06;;;;;;;1.27;1.00;;;14.80;99.90;;;;;;4971358;28;20042;-75
2023/08/23 01:29:32;;;;;;;1.00;0.90;;;14.80;99.90;;;;;;4952532;29;20047;-75
2023/08/23 01:32:25;;;;;;;1.92;1.15;;;14.80;99.90;;;;;;4965470;28;20192;-75
2023/08/23 01:34:57;;;;;;;0.93;0.82;;;14.70;99.90;;;;;;4955792;28;20062;-75
2023/08/23 01:37:24;;;;;;;1.33;0.77;;;14.80;99.90;;;;;;4962252;28;20114;-75
2023/08/23 01:39:54;;;;;;;0.80;0.75;;;14.80;99.90;;;;;;4977489;28;20062;-75
2023/08/23 01:42:21;;;;;;;0.77;0.73;;;14.80;99.90;;;;;;4971564;28;20541;-75
2023/08/23 01:44:50;;;;;;;1.20;0.90;;;14.80;99.90;;;;;;4966394;28;20046;-76
2023/08/23 01:47:16;;;;;;;0.80;0.80;;;14.90;99.90;;;;;;4997809;28;20039;-75
2023/08/23 01:49:42;;;;;;;0.70;0.70;;;14.80;99.90;;;;;;4969447;28;20039;-75
2023/08/23 01:52:08;;;;;;;0.90;0.80;;;14.80;99.90;;;;;;4967173;28;20039;-75
2023/08/23 01:54:34;;;;;;;1.05;0.90;;;14.80;99.90;;;;;;5000495;28;20071;-75
2023/08/23 01:56:59;;;;;;;1.08;0.90;;;14.70;99.90;;;;;;4953936;28;20121;-75
2023/08/23 01:59:25;;;;;;;1.02;0.80;;;14.70;99.90;;;;;;4970238;28;20058;-75
2023/08/23 02:01:51;;;;;;;1.08;0.98;;;14.70;99.90;;;;;;4971399;28;20057;-76
2023/08/23 02:04:19;;;;;;;0.95;0.80;;;14.70;99.90;;;;;;4951422;28;20051;-75
2023/08/23 02:06:45;;;;;;;2.38;1.08;;;14.70;99.90;;;;;;4937253;29;20066;-76
2023/08/23 02:09:11;;;;;;;1.20;0.90;;;14.70;99.90;;;;;;4967774;28;20491;-76
2023/08/23 02:11:37;;;;;;;1.65;0.90;;;14.70;99.90;;;;;;4970836;28;20042;-76
2023/08/23 02:14:03;;;;;;;1.00;0.90;;;14.70;99.90;;;;;;4972441;28;20058;-75
2023/08/23 02:16:29;;;;;;;0.70;0.70;;;14.70;99.90;;;;;;4973548;28;20038;-75
2023/08/23 02:18:55;;;;;;;0.80;0.80;;;14.80;99.90;;;;;;4972179;28;20390;-75
2023/08/23 02:21:20;;;;;;;0.93;0.80;;;14.80;99.90;;;;;;4984744;28;20035;-75
2023/08/23 02:23:46;;;;;;;1.42;1.05;;;14.70;99.90;;;;;;4952003;28;20046;-76
2023/08/23 02:26:12;;;;;;;1.17;1.00;;;14.70;99.90;;;;;;4997970;28;20039;-75
2023/08/23 02:28:38;;;;;;;1.00;0.85;;;14.60;99.90;;;;;;4950592;28;20050;-75
2023/08/23 02:31:04;;;;;;;1.23;1.00;;;14.60;99.90;;;;;;4996266;28;20523;-75
2023/08/23 02:33:29;;;;;;;1.17;0.95;;;14.60;99.90;;;;;;4953477;28;20046;-75
2023/08/23 02:35:55;;;;;;;1.38;1.10;;;14.60;99.90;;;;;;4972371;28;20566;-75
2023/08/23 02:38:21;;;;;;;1.42;1.20;;;14.60;99.90;;;;;;4969956;28;20470;-75
2023/08/23 02:40:46;;;;;;;1.23;1.13;;;14.60;99.90;;;;;;5002141;28;20062;-76
2023/08/23 02:43:12;;;;;;;2.03;1.02;;;14.50;99.90;;;;;;4969280;28;20505;-75
2023/08/23 02:45:41;;;;;;;1.33;1.10;;;14.60;99.90;;;;;;4954973;28;20054;-75
2023/08/23 02:48:08;;;;;;;1.17;1.08;;;14.50;99.90;;;;;;4957338;28;20096;-75
2023/08/23 02:50:34;;;;;;;1.20;1.05;;;14.60;99.90;;;;;;4954530;28;20047;-75
2023/08/23 02:53:00;;;;;;;1.65;0.98;;;14.60;99.90;;;;;;4956519;28;20043;-75
2023/08/23 02:55:25;;;;;;;0.93;0.85;;;14.70;99.90;;;;;;4983656;28;20081;-75
2023/08/23 02:57:51;;;;;;;1.50;1.02;;;14.70;99.90;;;;;;4961667;28;20035;-75
2023/08/23 03:00:17;;;;;;;1.17;1.00;;;14.70;99.90;;;;;;4959353;28;20094;-76
2023/08/23 03:02:42;;;;;;;1.10;1.00;;;14.70;99.90;;;;;;4967253;28;20383;-76
2023/08/23 03:05:08;;;;;;;1.65;1.08;;;14.70;99.90;;;;;;5003079;28;20505;-76
2023/08/23 03:07:34;;;;;;;1.10;1.00;;;14.70;99.90;;;;;;4969472;28;20479;-76
2023/08/23 03:10:00;;;;;;;1.15;1.05;;;14.70;99.90;;;;;;4962015;28;20039;-76
2023/08/23 03:12:26;;;;;;;1.20;1.08;;;14.70;99.90;;;;;;4969246;28;20053;-75
2023/08/23 03:14:51;;;;;;;1.67;1.40;;;14.80;99.90;;;;;;4954146;28;20039;-75
2023/08/23 03:17:17;;;;;;;1.58;1.40;;;14.80;99.90;;;;;;4966886;28;20093;-75
2023/08/23 03:19:43;;;;;;;1.20;1.02;;;14.80;99.90;;;;;;4953667;28;20065;-76
2023/08/23 03:22:08;;;;;;;1.25;1.15;;;14.80;99.90;;;;;;4953092;28;20125;-75
2023/08/23 03:24:34;;;;;;;0.95;0.80;;;14.80;99.90;;;;;;4964627;28;20050;-75
2023/08/23 03:26:59;;;;;;;1.27;1.05;;;14.90;99.90;;;;;;4931021;29;20053;-76
2023/08/23 03:29:25;;;;;;;1.40;1.20;;;14.90;99.90;;;;;;4952716;28;20050;-75
2023/08/23 03:31:51;;;;;;;1.95;1.30;;;14.90;99.90;;;;;;4959196;28;20055;-75
2023/08/23 03:34:16;;;;;;;1.20;1.10;;;14.90;99.90;;;;;;4987758;28;20043;-75
2023/08/23 03:36:42;;;;;;;1.50;1.30;;;14.90;99.90;;;;;;4951168;28;20105;-75
2023/08/23 03:39:08;;;;;;;1.40;1.15;;;15.00;99.90;;;;;;4968434;28;20046;-75
2023/08/23 03:41:33;;;;;;;1.35;1.20;;;15.00;99.90;;;;;;4969433;28;20484;-75
2023/08/23 03:43:59;;;;;;;1.00;0.90;;;15.00;99.90;;;;;;4966479;28;20134;-75
2023/08/23 03:46:25;;;;;;;1.30;1.00;;;15.00;99.90;;;;;;4954222;28;20039;-75
2023/08/23 03:48:51;;;;;;;1.52;1.23;;;15.10;99.90;;;;;;4960140;28;20545;-75
2023/08/23 03:51:17;;;;;;;;;;;15.10;99.90;;;;;;4970438;28;20039;-75
2023/08/23 03:53:43;;;;;;;1.35;1.17;;;15.10;99.90;;;;;;5002579;28;19929;-75
2023/08/23 03:56:08;;;;;;;1.27;1.10;;;15.10;99.90;;;;;;4970050;28;20039;-75
2023/08/23 03:58:35;;;;;;;1.65;1.30;;;15.20;99.90;;;;;;4968506;28;20450;-75
2023/08/23 04:01:01;;;;;;;1.38;1.13;;;15.20;99.90;;;;;;4969680;28;20035;-75
2023/08/23 04:03:26;;;;;;;1.45;1.20;;;15.20;99.90;;;;;;4946138;29;20077;-75
2023/08/23 04:05:52;;;;;;;1.48;1.13;;;15.30;99.90;;;;;;4980311;28;20043;-75
2023/08/23 04:08:18;;;;;;;1.30;1.00;;;15.30;99.90;;;;;;4970296;28;20134;-75
2023/08/23 04:10:50;;;;;;;1.23;0.90;;;15.40;99.90;;;;;;4967966;28;20724;-75
2023/08/23 04:13:16;;;;;;;1.63;1.02;;;15.40;99.90;;;;;;4998926;28;20046;-75
2023/08/23 04:15:45;;;;;;;;;;;15.40;99.90;;;;;;4939272;29;20451;-75
2023/08/23 04:18:11;;;;;;;0.95;0.80;;;15.40;99.90;;;;;;4954561;28;20033;-75
2023/08/23 04:20:38;;;;;;;1.38;1.00;;;15.40;99.90;;;;;;4996179;28;20126;-75
2023/08/23 04:23:04;;;;;;;3.47;2.30;;;15.40;99.90;;;;;;4973198;28;20490;-75
2023/08/23 04:25:30;;;;;;;2.10;1.88;;;15.50;99.90;;;;;;4972596;28;20461;-75
2023/08/23 04:27:56;;;;;;;1.90;1.50;;;15.40;99.90;;;;;;4960422;28;20086;-75
2023/08/23 04:30:21;;;;;;;1.70;1.50;;;15.30;99.90;;;;;;4971667;28;20038;-75
2023/08/23 04:32:47;;;;;;;1.05;0.90;;;15.30;99.90;;;;;;4971324;28;20042;-75
2023/08/23 04:35:13;;;;;;;1.10;1.00;;;15.20;99.90;;;;;;4972185;28;20097;-75
2023/08/23 04:37:38;;;;;;;1.20;1.10;;;15.20;99.90;;;;;;4972986;28;20398;-75
2023/08/23 04:40:07;;;;;;;1.75;1.30;;;15.10;99.90;;;;;;4994495;28;20058;-75
2023/08/23 04:42:33;;;;;;;1.33;1.10;;;15.10;99.90;;;;;;4970838;28;20065;-75
2023/08/23 04:45:00;;;;;;;1.42;1.10;;;15.10;99.90;;;;;;4971896;28;20046;-75
2023/08/23 04:47:27;;;;;;;1.52;1.35;;;15.00;99.90;;;;;;4971638;28;20051;-75
2023/08/23 04:49:53;;;;;;;1.20;1.00;;;15.00;99.90;;;;;;4978814;28;20034;-75
2023/08/23 04:52:18;;;;;;;1.80;1.30;;;15.00;99.90;;;;;;4971618;28;20035;-75
2023/08/23 04:54:44;;;;;;;1.50;1.40;;;15.00;99.90;;;;;;4943035;28;20055;-75
2023/08/23 04:57:10;;;;;;;2.15;1.45;;;15.00;99.90;;;;;;4971940;28;20057;-75
2023/08/23 04:59:35;;;;;;;2.60;1.55;;;15.10;99.90;;;;;;4985067;28;20031;-75
2023/08/23 05:02:01;;;;;;;1.52;1.30;;;15.00;99.90;;;;;;4964666;28;20054;-75
2023/08/23 05:04:27;;;;;;;1.90;1.60;;;15.00;99.90;;;;;;4956169;28;20450;-75
2023/08/23 05:06:52;;;;;;;2.35;2.10;;;15.00;99.90;;;;;;4972118;28;20039;-75
2023/08/23 05:09:18;;;;;;;2.17;1.98;;;15.10;99.90;;;;;;4948039;28;20059;-75
2023/08/23 05:11:44;;;;;;;2.35;1.70;;;15.10;99.90;;;;;;4955614;28;20062;-75
2023/08/23 05:14:10;;;;;;;2.50;2.13;;;15.10;99.90;;;;;;4969396;28;20054;-75
2023/08/23 05:16:35;;;;;;;2.88;1.90;;;15.20;99.90;;;;;;4968889;28;20039;-75
2023/08/23 05:19:01;;;;;;;2.05;1.80;;;15.10;99.90;;;;;;4970082;28;20478;-75
2023/08/23 05:21:27;;;;;;;1.77;1.40;;;15.20;99.90;;;;;;4962179;28;20043;-75
2023/08/23 05:23:52;;;;;;;2.15;1.85;;;15.20;99.90;;;;;;4970052;28;20491;-75
2023/08/23 05:26:18;;;;;;;2.42;1.80;;;15.20;99.90;;;;;;4947408;28;20494;-75
2023/08/23 05:28:44;;;;;;;2.58;2.03;;;15.20;99.90;;;;;;4949957;28;20491;-75
2023/08/23 05:31:10;;;;;;;1.80;1.55;;;15.30;99.90;;;;;;4984623;28;20053;-75
2023/08/23 05:33:37;;;;;;;2.47;1.90;;;15.30;99.90;;;;;;4968132;28;20051;-75
2023/08/23 05:36:03;;;;;;;3.47;2.60;;;15.30;99.90;;;;;;4970171;28;20039;-74
2023/08/23 05:38:29;;;;;;;3.38;2.67;;;15.40;99.90;;;;;;4962878;28;20043;-74
2023/08/23 05:40:54;;;;;;;2.85;2.22;;;15.40;99.90;;;;;;4962001;28;20117;-74
2023/08/23 05:43:21;;;;;;;2.53;2.00;;;15.40;99.90;;;;;;4963028;28;20051;-74
2023/08/23 05:45:47;;;;;;;4.00;2.30;;;15.40;99.90;;;;;;4937611;28;20125;-74
2023/08/23 05:48:13;;;;;;;2.95;2.17;;;15.40;99.90;;;;;;4953758;28;20097;-74
2023/08/23 05:50:39;;;;;;;3.42;2.60;;;15.40;99.90;;;;;;4956246;28;20070;-74
2023/08/23 05:53:09;;;;;;;3.50;2.60;;;15.50;99.90;;;;;;4971202;28;20053;-74
2023/08/23 05:55:36;;;;;;;3.10;2.38;;;15.50;99.90;;;;;;4966898;28;20054;-74
2023/08/23 05:58:02;;;;;;;2.85;2.38;;;15.60;99.90;;;;;;4986921;28;20043;-74
2023/08/23 06:00:27;;;;;;;;;;;15.70;99.90;;;;;;4971020;28;20047;-74
2023/08/23 06:02:53;;;;;;;2.42;2.00;;;15.80;99.90;;;;;;4991018;28;20294;-74
2023/08/23 06:05:19;;;;;;;2.40;2.05;;;15.80;99.90;;;;;;4971913;28;20134;-74
2023/08/23 06:07:45;;;;;;;3.13;2.10;;;16.00;99.90;;;;;;4971502;28;20104;-74
2023/08/23 06:10:11;;;;;;;3.63;3.05;;;16.00;99.90;;;;;;4969741;28;20050;-74
2023/08/23 06:12:37;;;;;;;3.60;2.42;;;16.20;99.90;;;;;;4952505;28;20468;-74
2023/08/23 06:15:04;;;;;;;;;;;16.20;99.90;;;;;;4965538;28;20401;-74
2023/08/23 06:17:30;;;;;;;1.92;1.60;;;16.30;99.90;;;;;;4965386;28;19917;-74
2023/08/23 06:19:55;;;;;;;2.20;1.75;;;16.40;99.90;;;;;;4953829;28;20053;-74
2023/08/23 06:22:21;;;;;;;2.10;1.77;;;16.40;99.90;;;;;;4968735;28;20051;-74
2023/08/23 06:24:47;;;;;;;2.10;1.60;;;16.50;99.90;;;;;;4962230;28;20047;-74
2023/08/23 06:27:12;;;;;;;2.10;1.67;;;16.60;99.90;;;;;;4954862;28;20046;-74
2023/08/23 06:29:39;;;;;;;1.63;1.52;;;16.70;99.90;;;;;;4955155;28;20398;-75
2023/08/23 06:32:06;;;;;;;2.28;1.55;;;16.80;99.90;;;;;;4965767;28;20486;-74
2023/08/23 06:34:32;;;;;;;2.30;1.70;;;16.90;99.90;;;;;;5000999;28;20050;-74
2023/08/23 06:36:58;;;;;;;1.92;1.73;;;17.00;99.90;;;;;;4937793;28;20050;-74
2023/08/23 06:39:24;;;;;;;2.58;1.95;;;17.00;99.90;;;;;;4951667;28;20122;-74
2023/08/23 06:41:49;;;;;;;1.40;1.30;;;17.00;99.90;;;;;;4967747;28;20055;-74
2023/08/23 06:44:15;;;;;;;;;;;17.10;99.90;;;;;;4970581;28;20050;-74
2023/08/23 06:46:40;;;;;;;2.50;2.00;;;17.30;99.90;;;;;;4971489;28;20384;-78
2023/08/23 06:49:06;;;;;;;2.45;2.00;;;17.40;99.90;;;;;;4954880;28;20046;-76
2023/08/23 06:51:32;;;;;;;;;;;17.50;99.90;;;;;;4971376;28;20501;-76
2023/08/23 06:53:57;;;;;;;2.33;2.00;;;17.70;99.90;;;;;;4966899;28;20377;-76
2023/08/23 06:56:25;;;;;;;3.25;2.50;;;17.80;99.90;;;;;;4989675;28;20054;-76
2023/08/23 06:58:51;;;;;;;3.25;2.10;;;18.00;99.90;;;;;;4970881;28;20125;-77
2023/08/23 07:01:17;;;;;;;;;;;18.20;99.90;;;;;;4967938;28;20145;-76
2023/08/23 07:03:43;;;;;;;3.25;2.30;;;18.20;99.90;;;;;;4961270;28;20384;-76
2023/08/23 07:06:13;;;;;;;3.10;2.78;;;18.30;99.90;;;;;;4957251;28;20474;-76
2023/08/23 07:08:43;;;;;;;2.25;1.70;;;18.30;99.90;;;;;;4976078;28;20042;-76
2023/08/23 07:11:09;;;;;;;2.95;2.60;;;18.50;99.90;;;;;;4986700;28;20053;-75
2023/08/23 07:13:36;;;;;;;4.40;3.70;;;18.70;99.90;;;;;;4963530;28;20158;-75
2023/08/23 07:16:03;;;;;;;3.65;3.00;;;18.90;99.90;;;;;;4964888;28;20060;-75
2023/08/23 07:18:29;;;;;;;2.75;2.40;;;19.00;99.90;;;;;;4968017;28;20047;-76
2023/08/23 07:20:55;;;;;;;3.55;2.90;;;19.30;99.90;;;;;;4952070;29;20435;-75
2023/08/23 07:23:21;;;;;;;;;;;19.50;99.90;;;;;;4962886;28;20074;-76
2023/08/23 07:25:47;;;;;;;2.58;2.13;;;19.60;99.90;;;;;;4992920;28;20360;-76
2023/08/23 07:28:12;;;;;;;;;;;19.70;99.90;;;;;;4970758;28;20042;-75
2023/08/23 07:30:43;;;;;;;2.70;2.20;;;19.80;99.90;;;;;;4970356;28;19954;-76
2023/08/23 07:33:09;;;;;;;3.72;2.10;;;19.70;99.90;;;;;;4967605;28;20055;-76
2023/08/23 07:35:35;;;;;;;;;;;19.80;99.90;;;;;;4964232;28;20423;-76
2023/08/23 07:38:03;;;;;;;2.92;2.28;;;19.90;99.90;;;;;;4995622;28;19922;-75
2023/08/23 07:40:28;;;;;;;2.38;2.03;;;19.80;99.90;;;;;;4980278;28;20059;-76
2023/08/23 07:42:54;;;;;;;;;;;19.70;99.90;;;;;;4945995;28;20134;-76
2023/08/23 07:45:21;;;;;;;2.45;2.00;;;19.70;99.90;;;;;;5000041;28;19925;-76
2023/08/23 07:47:46;;;;;;;3.33;2.50;;;19.70;99.90;;;;;;4957941;28;20059;-76
2023/08/23 07:50:12;;;;;;;;;;;19.80;99.90;;;;;;4984717;28;20054;-76
2023/08/23 07:52:38;;;;;;;2.40;1.65;;;19.80;99.90;;;;;;4990009;28;19921;-76
2023/08/23 07:55:05;;;;;;;;;;;19.90;99.90;;;;;;4969376;28;20356;-76
2023/08/23 07:57:30;;;;;;;1.60;1.40;;;20.00;99.90;;;;;;4983914;28;19976;-76
2023/08/23 07:59:56;;;;;;;2.15;1.70;;;20.10;99.90;;;;;;4957648;28;20464;-76
2023/08/23 08:02:22;;;;;;;2.88;2.40;;;20.40;99.90;;;;;;4977409;28;20451;-76
2023/08/23 08:04:48;;;;;;;3.00;2.53;;;20.60;99.90;;;;;;4973383;28;20062;-76
2023/08/23 08:07:14;;;;;;;2.45;1.70;;;20.70;99.90;;;;;;4973962;28;20560;-76
2023/08/23 08:09:39;;;;;;;;;;;20.80;99.90;;;;;;4990563;28;20039;-76
2023/08/23 08:12:05;;;;;;;2.20;1.75;;;21.00;99.90;;;;;;4990035;28;19922;-76
2023/08/23 08:14:31;;;;;;;;;;;21.10;99.90;;;;;;4990275;28;20051;-75
2023/08/23 08:16:57;;;;;;;3.38;2.53;;;21.20;40.00;;;;;;5006803;28;20019;-76
2023/08/23 08:19:22;;;;;;;2.60;2.08;;;21.40;1.00;;;;;;4971107;28;20047;-76
2023/08/23 08:21:48;;;;;;;;;;;21.50;99.90;;;;;;4960385;28;20039;-76
2023/08/23 08:24:14;;;;;;;3.13;1.80;;;21.70;99.90;;;;;;4941406;28;20447;-77
2023/08/23 08:26:39;;;;;;;1.92;1.45;;;22.00;99.90;;;;;;4941611;28;20065;-76
2023/08/23 08:29:05;;;;;;;2.75;2.30;;;22.20;4.90;;;;;;4970387;28;20218;-75
2023/08/23 08:31:31;;;;;;;3.22;2.05;;;22.20;99.90;;;;;;4953204;28;20061;-76
2023/08/23 08:33:58;;;;;;;3.60;2.17;;;22.30;99.90;;;;;;4958400;28;20102;-76
2023/08/23 08:36:23;;;;;;;2.83;2.20;;;22.00;1.00;;;;;;4967794;28;20061;-76
2023/08/23 08:38:49;;;;;;;2.33;1.85;;;22.10;99.90;;;;;;4958203;28;20500;-76
2023/08/23 08:41:16;;;;;;;2.45;2.03;;;22.10;99.90;;;;;;4957330;28;20126;-76
2023/08/23 08:43:41;;;;;;;2.67;2.10;;;22.10;99.90;;;;;;4974443;28;20513;-76
2023/08/23 08:46:07;;;;;;;2.72;2.25;;;21.90;99.90;;;;;;4973425;28;20043;-76
2023/08/23 08:48:33;;;;;;;2.67;1.70;;;21.80;99.90;;;;;;4972999;28;20589;-76
2023/08/23 08:50:59;;;;;;;2.65;1.30;;;22.00;1.00;;;;;;4969998;28;20118;-76
2023/08/23 08:53:26;;;;;;;1.60;1.50;;;22.40;1.00;;;;;;4953801;28;20360;-75
2023/08/23 08:55:52;;;;;;;3.75;2.60;;;22.70;99.90;;;;;;4972284;28;20129;-75
2023/08/23 08:58:20;;;;;;;2.25;1.70;;;22.90;99.90;;;;;;4972728;28;20438;-75
2023/08/23 09:00:49;;;;;;;5.07;2.80;;;23.10;39.40;;;;;;4969604;28;20043;-75
2023/08/23 09:03:18;;;;;;;4.43;2.88;;;23.10;99.90;;;;;;4959928;28;20082;-76
2023/08/23 09:05:46;;;;;;;3.65;2.60;;;22.80;99.90;;;;;;4972758;28;20391;-76
2023/08/23 09:08:12;;;;;;;4.07;2.10;;;22.60;96.30;;;;;;4972611;28;20126;-75
2023/08/23 09:10:37;;;;;;;2.22;1.70;;;22.80;99.90;;;;;;4956593;28;20129;-75
2023/08/23 09:13:03;;;;;;;3.35;1.90;;;23.10;99.90;;;;;;4969377;28;20070;-75
2023/08/23 09:15:29;;;;;;;2.92;1.67;;;23.40;1.00;;;;;;4962121;28;20047;-76
2023/08/23 09:17:55;;;;;;;2.63;1.80;;;23.60;99.90;;;;;;4956387;28;20071;-76
2023/08/23 09:20:22;;;;;;;2.80;1.83;;;23.40;99.90;;;;;;4956211;28;20078;-76
2023/08/23 09:22:52;;;;;;;2.13;1.52;;;23.20;99.90;;;;;;4972385;28;20051;-75
2023/08/23 09:25:18;;;;;;;3.85;2.85;;;23.10;1.00;;;;;;4969949;28;20049;-76
2023/08/23 09:27:43;;;;;;;2.38;2.00;;;23.20;53.10;;;;;;4956248;28;20505;-75
2023/08/23 09:30:11;;;;;;;3.67;2.65;;;23.40;15.60;;;;;;4972069;28;20035;-76
2023/08/23 09:32:37;;;;;;;3.05;2.30;;;23.50;99.90;;;;;;4970458;28;20082;-76
2023/08/23 09:35:20;;;;;;;3.85;2.38;;;23.60;99.90;;;;;;4988092;28;20132;-76
2023/08/23 09:37:48;;;;;;;2.97;2.55;;;23.40;99.90;;;;;;4961926;28;20043;-76
2023/08/23 09:40:22;;;;;;;2.80;1.88;;;23.40;37.10;;;;;;4955206;28;20057;-76
2023/08/23 09:42:51;;;;;;;3.38;2.25;;;23.50;79.20;;;;;;4956313;28;20458;-76
2023/08/23 09:45:19;;;;;;;3.00;2.35;;;23.70;94.70;;;;;;4958531;28;20113;-76
2023/08/23 09:48:05;;;;;;;2.50;1.60;;;23.70;1.00;;;;;;4972079;28;20050;-76
2023/08/23 09:50:32;;;;;;;2.83;1.98;;;23.70;99.90;;;;;;4971798;28;20042;-77
2023/08/23 09:53:03;;;;;;;2.65;2.10;;;23.60;1.00;;;;;;4973680;28;20038;-77
2023/08/23 09:55:31;;;;;;;2.83;2.00;;;23.40;99.90;;;;;;4971967;28;20085;-76
2023/08/23 09:57:58;;;;;;;5.10;3.00;;;23.40;1.00;;;;;;4967150;28;20122;-77
2023/08/23 10:00:25;;;;;;;4.20;3.28;;;23.20;53.00;;;;;;4963147;28;20051;-76
2023/08/23 10:02:53;;;;;;;3.50;2.60;;;23.10;1.00;;;;;;4971855;28;20138;-76
2023/08/23 10:05:20;;;;;;;3.45;2.78;;;23.10;1.00;;;;;;4962846;28;20487;-77
2023/08/23 10:07:46;;;;;;;3.63;2.22;;;23.10;99.90;;;;;;4967648;28;20078;-77
2023/08/23 10:10:12;;;;;;;2.95;2.00;;;23.20;99.90;;;;;;4955255;28;20483;-77
2023/08/23 10:12:42;;;;;;;3.78;2.33;;;23.50;99.90;;;;;;4971779;28;20046;-76
2023/08/23 10:15:11;;;;;;;3.72;2.75;;;23.50;99.90;;;;;;4961247;28;20046;-77
2023/08/23 10:17:39;;;;;;;6.28;3.50;;;23.70;99.90;;;;;;4960912;28;20035;-75
2023/08/23 10:20:07;;;;;;;3.53;2.20;;;23.50;1.00;;;;;;4967091;28;20035;-78
2023/08/23 10:22:33;;;;;;;3.60;2.33;;;23.90;8.50;;;;;;4947143;28;20045;-77
2023/08/23 10:24:59;;;;;;;3.25;1.90;;;24.10;99.90;;;;;;4952188;28;20174;-77
2023/08/23 10:27:25;;;;;;;2.70;1.80;;;24.40;99.90;;;;;;4952408;28;20550;-77
2023/08/23 10:29:51;;;;;;;6.03;3.65;;;24.60;99.90;;;;;;4966570;28;20494;-75
2023/08/23 10:32:17;;;;;;;4.05;2.53;;;24.50;99.90;;;;;;4971116;28;20053;-76
2023/08/23 10:34:43;;;;;;;3.28;2.28;;;24.80;99.90;;;;;;4971171;28;20451;-76
2023/08/23 10:37:17;;;;;;;3.15;2.10;;;24.90;98.90;;;;;;4954780;28;20069;-76
2023/08/23 10:39:51;;;;;;;2.55;2.20;;;24.70;1.00;;;;;;4960610;28;20054;-77
2023/08/23 10:42:17;;;;;;;2.45;1.67;;;24.70;90.90;;;;;;4954465;28;20462;-77
2023/08/23 10:45:06;;;;;;;1.63;1.30;;;24.80;55.50;;;;;;4968062;28;20491;-76
2023/08/23 10:47:36;;;;;;;2.28;1.30;;;25.00;1.00;;;;;;4945703;28;20043;-76
2023/08/23 10:50:06;;;;;;;3.78;2.75;;;25.20;99.00;;;;;;4964688;28;20069;-77
2023/08/23 10:52:32;;;;;;;2.33;1.40;;;25.00;64.60;;;;;;4987380;28;20050;-76
2023/08/23 10:54:59;;;;;;;1.95;1.75;;;25.30;39.60;;;;;;4947063;29;20043;-77
2023/08/23 10:57:25;;;;;;;2.50;2.00;;;25.20;1.00;;;;;;4962315;28;20043;-77
2023/08/23 10:59:51;;;;;;;2.67;1.77;;;25.20;99.90;;;;;;4957729;28;20625;-77
2023/08/23 11:02:17;;;;;;;3.75;1.50;;;25.30;1.00;;;;;;4971143;28;20146;-77
2023/08/23 11:04:43;;;;;;;3.95;1.42;;;25.40;76.80;;;;;;4967748;28;20043;-77
2023/08/23 11:07:09;;;;;;;2.95;1.88;;;25.60;60.60;;;;;;4963041;28;20043;-76
2023/08/23 11:09:35;;;;;;;2.63;1.60;;;25.60;1.00;;;;;;4968192;28;20054;-77
2023/08/23 11:12:03;;;;;;;1.67;1.40;;;25.70;99.90;;;;;;4992188;28;20118;-77
2023/08/23 11:14:30;;;;;;;4.22;2.42;;;25.80;1.00;;;;;;4957119;28;20069;-76
2023/08/23 11:16:56;;;;;;;3.08;1.70;;;25.80;1.00;;;;;;4970599;28;20380;-76
2023/08/23 11:19:22;;;;;;;2.05;1.33;;;25.90;1.00;;;;;;4970277;28;20054;-76
2023/08/23 11:21:47;;;;;;;1.50;1.00;;;26.10;99.90;;;;;;4969664;28;20071;-75
2023/08/23 11:24:13;;;;;;;2.53;1.23;;;26.20;99.90;;;;;;4954548;28;20454;-77
2023/08/23 11:26:39;;;;;;;2.53;1.38;;;26.20;99.90;;;;;;4954209;28;20612;-77
2023/08/23 11:29:05;;;;;;;2.95;1.30;;;26.20;99.90;;;;;;4961727;28;20043;-77
2023/08/23 11:31:35;;;;;;;3.53;1.42;;;26.10;93.00;;;;;;4949691;28;20105;-77
2023/08/23 11:34:06;;;;;;;1.20;1.00;;;26.00;94.20;;;;;;4967215;28;20454;-76
2023/08/23 11:36:33;;;;;;;2.08;0.93;;;26.50;99.90;;;;;;4951414;28;20062;-77
2023/08/23 11:39:06;;;;;;;1.40;0.90;;;26.50;40.80;;;;;;4964377;28;20047;-77
2023/08/23 11:41:34;;;;;;;3.22;1.60;;;26.50;26.70;;;;;;4964179;28;20065;-77
2023/08/23 11:44:18;;;;;;;2.03;1.20;;;26.20;27.40;;;;;;4964511;28;20043;-77
2023/08/23 11:46:44;;;;;;;1.40;1.02;;;26.30;59.00;;;;;;4951216;28;20054;-77
2023/08/23 11:49:10;;;;;;;2.70;1.33;;;26.70;97.30;;;;;;4964659;28;20051;-77
2023/08/23 11:51:46;;;;;;;2.35;1.00;;;26.00;70.60;;;;;;4963066;28;20046;-76
2023/08/23 11:54:13;;;;;;;;;;;25.90;99.90;;;;;;4956665;28;20054;-77
2023/08/23 11:56:43;;;;;;;3.28;1.23;;;25.20;99.90;;;;;;4971430;28;19926;-77
2023/08/23 11:59:13;;;;;;;2.08;1.05;;;25.10;99.90;;;;;;4966598;28;20079;-77
2023/08/23 12:01:39;;;;;;;2.65;1.30;;;24.70;99.90;;;;;;4957856;28;20046;-77
2023/08/23 12:04:08;;;;;;;3.85;1.58;;;24.30;99.90;;;;;;4953916;28;20047;-77
2023/08/23 12:06:34;;;;;;;3.88;1.60;;;23.80;99.90;;;;;;4964502;28;20070;-77
2023/08/23 12:09:00;;;;;;;3.97;1.55;;;23.50;1.00;;;;;;4945898;28;20498;-77
2023/08/23 12:11:25;;;;;;;4.18;1.48;;;23.40;1.00;;;;;;4986140;28;20042;-77
2023/08/23 12:13:51;;;;;;;2.05;1.05;;;23.30;1.00;;;;;;4960561;28;20047;-77
2023/08/23 12:16:17;;;;;;;1.67;0.95;;;23.30;7.60;;;;;;4949703;28;20161;-77
2023/08/23 12:18:46;;;;;;;1.70;0.90;;;23.60;16.10;;;;;;4969792;28;20039;-77
2023/08/23 12:21:12;;;;;;;1.90;1.00;;;24.20;99.90;;;;;;4969795;28;20130;-77
2023/08/23 12:23:37;;;;;;;1.05;0.60;;;24.70;99.90;;;;;;4966805;28;20122;-77
2023/08/23 12:26:03;;;;;;;2.22;1.13;;;25.20;99.90;;;;;;4962135;28;20046;-77
2023/08/23 12:28:29;;;;;;;1.65;1.00;;;25.20;99.90;;;;;;4936419;29;20143;-78
2023/08/23 12:30:55;;;;;;;2.92;1.23;;;25.60;99.90;;;;;;4950928;28;20047;-77
2023/08/23 12:33:21;;;;;;;3.38;0.93;;;25.60;59.90;;;;;;4966207;28;20101;-77
2023/08/23 12:35:46;;;;;;;3.15;0.90;;;25.60;61.00;;;;;;4941469;28;20050;-77
2023/08/23 12:38:12;;;;;;;1.77;0.80;;;25.70;32.60;;;;;;4973205;28;20042;-77
2023/08/23 12:40:38;;;;;;;1.02;0.70;;;25.50;1.00;;;;;;4973092;28;20105;-77
2023/08/23 12:43:04;;;;;;;1.35;0.75;;;25.00;1.00;;;;;;4973469;28;20431;-77
2023/08/23 12:45:30;;;;;;;1.33;0.60;;;24.80;1.00;;;;;;4969769;28;20063;-77
2023/08/23 12:47:55;;;;;;;1.33;0.68;;;24.50;1.00;;;;;;4970129;28;20079;-77
2023/08/23 12:50:21;;;;;;;1.17;0.63;;;24.50;1.00;;;;;;4969626;28;20038;-77